createdAt,value
2023-01-29T00:01:35.265Z,9.80
2023-01-29T00:04:03.008Z,9.50
2023-01-29T00:06:30.798Z,8.97
2023-01-29T00:08:58.650Z,9.13
2023-01-29T00:11:28.119Z,10.43
2023-01-29T00:13:56.113Z,10.37
2023-01-29T00:16:24.003Z,12.00
2023-01-29T00:18:51.760Z,9.83
2023-01-29T00:21:22.078Z,12.00
2023-01-29T00:23:49.966Z,11.23
2023-01-29T00:26:19.183Z,8.70
2023-01-29T00:28:48.272Z,10.33
2023-01-29T00:31:18.209Z,12.90
2023-01-29T00:33:46.629Z,9.77
2023-01-29T00:36:16.269Z,10.93
2023-01-29T00:38:44.383Z,9.33
2023-01-29T00:41:31.454Z,12.50
2023-01-29T00:44:18.822Z,10.93
2023-01-29T00:46:47.174Z,9.90
2023-01-29T00:49:14.865Z,11.37
2023-01-29T00:51:42.598Z,11.00
2023-01-29T00:54:10.524Z,11.97
2023-01-29T00:56:38.646Z,14.00
2023-01-29T00:59:07.757Z,13.43
2023-01-29T01:01:53.022Z,10.97
2023-01-29T01:04:20.772Z,12.47
2023-01-29T01:06:48.588Z,10.83
2023-01-29T01:09:34.028Z,12.57
2023-01-29T01:12:01.754Z,10.70
2023-01-29T01:14:30.934Z,12.03
2023-01-29T01:16:58.709Z,12.70
2023-01-29T01:19:26.414Z,9.83
2023-01-29T01:21:54.295Z,11.97
2023-01-29T01:24:23.379Z,11.57
2023-01-29T01:26:51.115Z,12.90
2023-01-29T01:29:18.898Z,13.03
2023-01-29T01:31:48.174Z,17.90
2023-01-29T01:34:16.329Z,9.73
2023-01-29T01:36:44.067Z,11.93
2023-01-29T01:39:12.046Z,11.57
2023-01-29T01:41:39.774Z,12.73
2023-01-29T01:44:07.868Z,12.03
2023-01-29T01:46:37.743Z,13.83
2023-01-29T01:49:17.291Z,17.47
2023-01-29T01:51:48.782Z,13.93
2023-01-29T01:54:21.691Z,13.93
2023-01-29T01:56:55.435Z,12.83
2023-01-29T01:59:25.103Z,14.10
2023-01-29T02:01:55.615Z,11.73
2023-01-29T02:04:45.228Z,15.63
2023-01-29T02:07:33.915Z,16.93
2023-01-29T02:10:07.530Z,15.97
2023-01-29T02:12:35.444Z,14.50
2023-01-29T02:15:03.430Z,13.07
2023-01-29T02:17:31.294Z,15.83
2023-01-29T02:20:10.685Z,13.80
2023-01-29T02:23:06.778Z,13.87
2023-01-29T02:26:10.696Z,13.27
2023-01-29T02:28:49.005Z,13.23
2023-01-29T02:31:28.418Z,14.20
2023-01-29T02:34:08.558Z,14.87
2023-01-29T02:36:46.741Z,13.53
2023-01-29T02:39:18.502Z,15.47
2023-01-29T02:41:57.150Z,15.23
2023-01-29T02:44:35.176Z,16.23
2023-01-29T02:47:08.932Z,16.67
2023-01-29T02:49:41.877Z,18.37
2023-01-29T02:52:16.361Z,15.30
2023-01-29T02:54:48.953Z,13.83
2023-01-29T02:57:21.369Z,14.07
2023-01-29T02:59:58.506Z,14.47
2023-01-29T03:02:34.343Z,13.30
2023-01-29T03:05:08.373Z,13.37
2023-01-29T03:07:44.943Z,11.80
2023-01-29T03:10:18.565Z,15.03
2023-01-29T03:12:52.053Z,11.57
2023-01-29T03:15:27.253Z,13.33
2023-01-29T03:17:58.498Z,14.93
2023-01-29T03:20:32.189Z,12.30
2023-01-29T03:23:06.025Z,10.03
2023-01-29T03:25:54.542Z,11.53
2023-01-29T03:28:40.687Z,9.67
2023-01-29T03:31:30.960Z,11.00
2023-01-29T03:34:04.921Z,10.07
2023-01-29T03:36:39.753Z,12.17
2023-01-29T03:39:09.030Z,11.27
2023-01-29T03:41:41.373Z,13.60
2023-01-29T03:44:15.808Z,10.13
2023-01-29T03:46:53.669Z,14.07
2023-01-29T03:49:31.011Z,10.40
2023-01-29T03:52:03.987Z,12.47
2023-01-29T03:54:40.513Z,10.77
2023-01-29T03:57:16.613Z,11.33
2023-01-29T03:59:51.543Z,9.90
2023-01-29T04:02:28.070Z,10.50
2023-01-29T04:05:00.316Z,11.97
2023-01-29T04:07:33.481Z,13.03
2023-01-29T04:10:06.603Z,9.73
2023-01-29T04:12:42.187Z,10.67
2023-01-29T04:15:15.377Z,10.90
2023-01-29T04:17:49.781Z,10.23
2023-01-29T04:20:18.245Z,8.90
2023-01-29T04:22:47.954Z,10.43
2023-01-29T04:25:19.251Z,9.30
2023-01-29T04:27:55.827Z,8.40
2023-01-29T04:30:34.506Z,11.27
2023-01-29T04:33:15.098Z,10.23
2023-01-29T04:35:55.845Z,10.70
2023-01-29T04:38:33.380Z,9.77
2023-01-29T04:41:06.666Z,10.17
2023-01-29T04:43:42.724Z,11.43
2023-01-29T04:46:16.613Z,10.43
2023-01-29T04:48:59.637Z,12.77
2023-01-29T04:51:42.312Z,10.83
2023-01-29T04:54:17.700Z,12.00
2023-01-29T04:56:58.281Z,12.33
2023-01-29T04:59:32.211Z,11.60
2023-01-29T05:02:02.358Z,12.77
2023-01-29T05:04:35.326Z,11.57
2023-01-29T05:07:05.742Z,12.77
2023-01-29T05:09:35.582Z,12.53
2023-01-29T05:12:04.685Z,11.73
2023-01-29T05:14:35.462Z,12.37
2023-01-29T05:17:09.838Z,13.17
2023-01-29T05:19:39.042Z,12.43
2023-01-29T05:22:10.238Z,14.57
2023-01-29T05:24:38.450Z,12.53
2023-01-29T05:27:23.678Z,12.27
2023-01-29T05:29:51.458Z,12.03
2023-01-29T05:32:19.315Z,12.30
2023-01-29T05:34:48.487Z,11.10
2023-01-29T05:37:16.288Z,11.33
2023-01-29T05:39:44.033Z,12.43
2023-01-29T05:42:11.766Z,11.40
2023-01-29T05:44:39.567Z,12.17
2023-01-29T05:47:07.376Z,13.60
2023-01-29T05:49:36.362Z,11.90
2023-01-29T05:52:06.453Z,12.97
2023-01-29T05:54:34.217Z,12.77
2023-01-29T05:57:01.971Z,12.10
2023-01-29T05:59:31.163Z,13.00
2023-01-29T06:01:58.937Z,10.57
2023-01-29T06:04:26.710Z,9.87
2023-01-29T06:06:54.475Z,11.30
2023-01-29T06:09:23.590Z,11.40
2023-01-29T06:11:51.389Z,12.10
2023-01-29T06:14:19.061Z,12.60
2023-01-29T06:16:46.963Z,11.80
2023-01-29T06:19:14.720Z,11.53
2023-01-29T06:21:42.535Z,10.90
2023-01-29T06:24:10.475Z,8.83
2023-01-29T06:26:39.595Z,11.10
2023-01-29T06:29:07.393Z,15.20
2023-01-29T06:31:39.457Z,13.90
2023-01-29T06:34:07.893Z,9.97
2023-01-29T06:36:37.246Z,10.33
2023-01-29T06:39:05.821Z,12.67
2023-01-29T06:41:33.715Z,11.37
2023-01-29T06:44:02.878Z,11.43
2023-01-29T06:46:30.769Z,12.03
2023-01-29T06:49:00.314Z,10.47
2023-01-29T06:51:28.374Z,15.43
2023-01-29T06:53:56.488Z,11.37
2023-01-29T06:56:25.195Z,10.87
2023-01-29T06:58:52.906Z,12.93
2023-01-29T07:01:35.077Z,16.50
2023-01-29T07:04:04.203Z,12.10
2023-01-29T07:06:35.011Z,13.80
2023-01-29T07:09:02.843Z,11.23
2023-01-29T07:11:30.829Z,14.43
2023-01-29T07:13:58.672Z,15.33
2023-01-29T07:16:27.944Z,13.03
2023-01-29T07:18:55.802Z,14.43
2023-01-29T07:21:23.768Z,13.63
2023-01-29T07:23:51.696Z,13.83
2023-01-29T07:26:19.442Z,13.97
2023-01-29T07:28:47.196Z,13.97
2023-01-29T07:31:15.955Z,12.60
2023-01-29T07:33:45.879Z,12.60
2023-01-29T07:36:14.326Z,13.50
2023-01-29T07:38:42.198Z,13.50
2023-01-29T07:41:15.589Z,14.43
2023-01-29T07:43:45.781Z,14.07
2023-01-29T07:46:13.623Z,16.70
2023-01-29T07:48:41.414Z,15.10
2023-01-29T07:51:10.592Z,14.63
2023-01-29T07:53:38.485Z,14.93
2023-01-29T07:56:06.957Z,16.27
2023-01-29T07:58:36.664Z,15.60
2023-01-29T08:01:06.989Z,15.50
2023-01-29T08:03:34.914Z,12.90
2023-01-29T08:06:02.692Z,12.53
2023-01-29T08:08:32.372Z,15.73
2023-01-29T08:11:02.551Z,13.20
2023-01-29T08:13:30.574Z,16.73
2023-01-29T08:16:01.160Z,16.67
2023-01-29T08:18:29.179Z,16.10
2023-01-29T08:21:00.986Z,14.77
2023-01-29T08:23:28.875Z,17.23
2023-01-29T08:25:58.102Z,14.07
2023-01-29T08:28:25.937Z,14.70
2023-01-29T08:30:53.796Z,13.57
2023-01-29T08:33:29.644Z,15.17
2023-01-29T08:36:01.279Z,16.33
2023-01-29T08:38:29.071Z,17.33
2023-01-29T08:40:58.170Z,22.20
2023-01-29T08:43:25.987Z,14.20
2023-01-29T08:45:53.869Z,15.27
2023-01-29T08:48:22.056Z,16.73
2023-01-29T08:50:49.833Z,17.80
2023-01-29T08:53:19.565Z,16.07
2023-01-29T08:55:47.375Z,18.47
2023-01-29T08:58:16.850Z,15.77
2023-01-29T09:00:44.662Z,16.83
2023-01-29T09:03:12.646Z,17.67
2023-01-29T09:05:41.892Z,17.73
2023-01-29T09:08:10.541Z,21.57
2023-01-29T09:10:38.240Z,17.00
2023-01-29T09:13:06.162Z,18.57
2023-01-29T09:15:35.248Z,15.77
2023-01-29T09:18:05.364Z,17.20
2023-01-29T09:20:33.521Z,19.37
2023-01-29T09:23:05.908Z,19.10
2023-01-29T09:25:33.633Z,20.10
2023-01-29T09:28:01.407Z,19.43
2023-01-29T09:30:29.881Z,18.43
2023-01-29T09:33:01.369Z,17.40
2023-01-29T09:35:29.273Z,21.03
2023-01-29T09:37:57.100Z,19.23
2023-01-29T09:40:27.755Z,20.50
2023-01-29T09:43:02.107Z,20.03
2023-01-29T09:45:31.371Z,18.97
2023-01-29T09:48:03.664Z,18.33
2023-01-29T09:50:35.831Z,16.60
2023-01-29T09:53:11.936Z,16.60
2023-01-29T09:55:44.863Z,20.53
2023-01-29T09:58:19.437Z,22.20
2023-01-29T10:00:55.640Z,18.70
2023-01-29T10:03:41.834Z,18.63
2023-01-29T10:06:24.689Z,19.87
2023-01-29T10:09:11.036Z,16.87
2023-01-29T10:11:47.122Z,21.13
2023-01-29T10:14:24.123Z,19.33
2023-01-29T10:17:09.346Z,19.07
2023-01-29T10:19:56.515Z,20.03
2023-01-29T10:22:45.460Z,21.30
2023-01-29T10:25:17.116Z,19.97
2023-01-29T10:27:49.869Z,23.43
2023-01-29T10:30:32.381Z,18.00
2023-01-29T10:33:04.698Z,19.43
2023-01-29T10:35:37.810Z,20.13
2023-01-29T10:38:23.384Z,16.60
2023-01-29T10:40:57.705Z,18.70
2023-01-29T10:43:33.950Z,17.97
2023-01-29T10:46:13.719Z,19.27
2023-01-29T10:48:50.389Z,20.60
2023-01-29T10:51:34.950Z,18.80
2023-01-29T10:54:18.979Z,19.70
2023-01-29T10:56:59.522Z,22.67
2023-01-29T10:59:40.774Z,19.67
2023-01-29T11:02:16.501Z,17.47
2023-01-29T11:04:44.546Z,21.10
2023-01-29T11:07:14.918Z,19.33
2023-01-29T11:09:48.965Z,20.40
2023-01-29T11:12:21.637Z,20.93
2023-01-29T11:14:53.068Z,18.40
2023-01-29T11:17:23.273Z,20.27
2023-01-29T11:19:52.971Z,19.77
2023-01-29T11:22:23.379Z,20.70
2023-01-29T11:25:09.801Z,19.87
2023-01-29T11:27:44.261Z,19.17
2023-01-29T11:30:19.008Z,18.63
2023-01-29T11:32:52.803Z,20.47
2023-01-29T11:35:25.643Z,20.83
2023-01-29T11:38:09.085Z,19.30
2023-01-29T11:40:40.264Z,22.33
2023-01-29T11:43:23.975Z,17.17
2023-01-29T11:45:54.409Z,18.87
2023-01-29T11:48:24.022Z,19.13
2023-01-29T11:50:57.740Z,17.77
2023-01-29T11:53:35.680Z,17.33
2023-01-29T11:56:08.398Z,19.90
2023-01-29T11:58:37.166Z,21.07
2023-01-29T12:01:06.155Z,21.83
2023-01-29T12:03:37.249Z,21.33
2023-01-29T12:06:08.613Z,18.40
2023-01-29T12:08:39.777Z,19.63
2023-01-29T12:11:13.532Z,18.83
2023-01-29T12:13:43.338Z,16.77
2023-01-29T12:16:21.632Z,17.90
2023-01-29T12:18:55.291Z,18.97
2023-01-29T12:21:31.101Z,20.97
2023-01-29T12:24:05.095Z,16.83
2023-01-29T12:26:36.434Z,16.97
2023-01-29T12:29:17.793Z,19.77
2023-01-29T12:31:53.371Z,17.57
2023-01-29T12:34:27.882Z,17.30
2023-01-29T12:37:02.014Z,18.53
2023-01-29T12:39:32.573Z,16.37
2023-01-29T12:42:06.007Z,17.87
2023-01-29T12:44:42.256Z,16.63
2023-01-29T12:47:18.834Z,15.53
2023-01-29T12:49:51.562Z,18.27
2023-01-29T12:52:24.953Z,17.40
2023-01-29T12:54:59.425Z,16.80
2023-01-29T12:57:39.298Z,17.37
2023-01-29T13:00:14.232Z,16.83
2023-01-29T13:02:49.309Z,15.87
2023-01-29T13:05:24.411Z,17.63
2023-01-29T13:07:58.794Z,17.43
2023-01-29T13:10:32.650Z,14.67
2023-01-29T13:13:03.902Z,16.93
2023-01-29T13:15:36.180Z,19.20
2023-01-29T13:18:32.164Z,15.43
2023-01-29T13:21:01.248Z,16.83
2023-01-29T13:23:35.214Z,14.90
2023-01-29T13:26:05.725Z,19.23
2023-01-29T13:28:33.874Z,15.97
2023-01-29T13:31:15.261Z,17.47
2023-01-29T13:33:44.542Z,14.63
2023-01-29T13:36:19.841Z,16.27
2023-01-29T13:38:47.685Z,17.83
2023-01-29T13:41:16.894Z,19.97
2023-01-29T13:43:51.083Z,12.77
2023-01-29T13:46:21.481Z,15.50
2023-01-29T13:48:51.952Z,16.93
2023-01-29T13:51:23.713Z,14.20
2023-01-29T13:53:58.137Z,15.27
2023-01-29T13:56:47.807Z,14.17
2023-01-29T13:59:26.780Z,17.00
2023-01-29T14:02:20.146Z,17.27
2023-01-29T14:04:47.884Z,13.90
2023-01-29T14:07:40.859Z,16.10
2023-01-29T14:10:16.904Z,14.23
2023-01-29T14:12:54.373Z,12.30
2023-01-29T14:15:32.986Z,14.47
2023-01-29T14:18:05.882Z,13.83
2023-01-29T14:20:46.437Z,13.77
2023-01-29T14:23:29.981Z,13.97
2023-01-29T14:25:59.959Z,15.37
2023-01-29T14:28:31.700Z,15.23
2023-01-29T14:31:00.491Z,13.40
2023-01-29T14:33:34.599Z,14.77
2023-01-29T14:36:07.405Z,11.53
2023-01-29T14:38:35.616Z,13.97
2023-01-29T14:41:07.007Z,14.70
2023-01-29T14:43:36.133Z,13.40
2023-01-29T14:46:41.254Z,13.70
2023-01-29T14:49:09.866Z,13.27
2023-01-29T14:51:41.562Z,13.37
2023-01-29T14:54:22.060Z,14.83
2023-01-29T14:56:58.442Z,13.80
2023-01-29T14:59:32.364Z,14.67
2023-01-29T15:02:06.297Z,14.37
2023-01-29T15:04:40.241Z,17.00
2023-01-29T15:07:19.479Z,18.77
2023-01-29T15:09:49.617Z,16.30
2023-01-29T15:12:25.724Z,17.13
2023-01-29T15:15:08.950Z,14.63
2023-01-29T15:17:43.301Z,15.27
2023-01-29T15:20:32.703Z,12.13
2023-01-29T15:23:03.215Z,11.23
2023-01-29T15:25:37.068Z,16.20
2023-01-29T15:28:08.594Z,11.70
2023-01-29T15:30:39.172Z,13.67
2023-01-29T15:33:11.639Z,11.17
2023-01-29T15:35:41.881Z,16.87
2023-01-29T15:38:17.799Z,14.10
2023-01-29T15:40:53.938Z,13.37
2023-01-29T15:43:24.573Z,15.73
2023-01-29T15:45:56.561Z,13.97
2023-01-29T15:48:32.778Z,16.57
2023-01-29T15:51:00.986Z,13.83
2023-01-29T15:53:36.299Z,16.87
2023-01-29T15:56:10.055Z,12.90
2023-01-29T15:58:38.888Z,13.07
2023-01-29T16:01:09.659Z,15.20
2023-01-29T16:03:38.620Z,14.13
2023-01-29T16:06:08.771Z,15.47
2023-01-29T16:08:37.614Z,14.23
2023-01-29T16:11:07.391Z,16.83
2023-01-29T16:13:37.916Z,14.40
2023-01-29T16:16:20.278Z,14.07
2023-01-29T16:18:59.949Z,17.53
2023-01-29T16:21:33.171Z,12.77
2023-01-29T16:24:03.257Z,16.83
2023-01-29T16:26:34.864Z,15.20
2023-01-29T16:29:06.569Z,14.73
2023-01-29T16:31:37.823Z,16.27
2023-01-29T16:34:10.273Z,15.63
2023-01-29T16:36:38.287Z,15.57
2023-01-29T16:39:07.567Z,15.17
2023-01-29T16:41:38.290Z,15.20
2023-01-29T16:44:32.871Z,13.53
2023-01-29T16:47:08.086Z,14.13
2023-01-29T16:49:49.997Z,16.33
2023-01-29T16:52:20.447Z,17.70
2023-01-29T16:54:48.186Z,16.17
2023-01-29T16:57:19.332Z,16.23
2023-01-29T16:59:47.516Z,18.13
2023-01-29T17:02:24.758Z,16.27
2023-01-29T17:04:54.788Z,16.17
2023-01-29T17:07:23.582Z,16.20
2023-01-29T17:09:54.230Z,18.40
2023-01-29T17:12:25.722Z,18.40
2023-01-29T17:14:56.131Z,22.60
2023-01-29T17:17:30.576Z,19.40
2023-01-29T17:19:59.116Z,17.80
2023-01-29T17:22:26.999Z,16.27
2023-01-29T17:24:55.980Z,16.90
2023-01-29T17:27:24.160Z,16.87
2023-01-29T17:29:52.787Z,16.60
2023-01-29T17:32:21.311Z,16.20
2023-01-29T17:34:50.408Z,14.73
2023-01-29T17:37:18.271Z,14.80
2023-01-29T17:39:50.455Z,17.83
2023-01-29T17:42:18.304Z,16.33
2023-01-29T17:44:46.206Z,16.33
2023-01-29T17:47:15.442Z,15.30
2023-01-29T17:49:43.244Z,20.47
2023-01-29T17:52:12.353Z,14.33
2023-01-29T17:54:40.135Z,17.10
2023-01-29T17:57:07.961Z,15.70
2023-01-29T17:59:35.681Z,17.23
2023-01-29T18:02:03.434Z,17.63
2023-01-29T18:04:31.391Z,16.10
2023-01-29T18:06:59.297Z,17.03
2023-01-29T18:09:28.635Z,13.37
2023-01-29T18:11:56.465Z,14.50
2023-01-29T18:14:24.215Z,13.67
2023-01-29T18:16:52.200Z,15.90
2023-01-29T18:19:22.855Z,14.70
2023-01-29T18:21:51.132Z,16.10
2023-01-29T18:24:20.407Z,16.07
2023-01-29T18:26:51.105Z,13.47
2023-01-29T18:29:18.911Z,12.33
2023-01-29T18:31:49.355Z,13.80
2023-01-29T18:34:17.202Z,18.70
2023-01-29T18:36:47.682Z,14.37
2023-01-29T18:39:15.621Z,14.03
2023-01-29T18:41:43.653Z,14.97
2023-01-29T18:44:13.086Z,21.17
2023-01-29T18:46:41.152Z,16.27
2023-01-29T18:49:08.948Z,17.27
2023-01-29T18:51:36.724Z,21.40
2023-01-29T18:54:05.060Z,14.20
2023-01-29T18:56:32.792Z,14.53
2023-01-29T18:59:00.512Z,14.87
2023-01-29T19:01:32.455Z,18.47
2023-01-29T19:04:01.848Z,14.00
2023-01-29T19:06:29.729Z,17.73
2023-01-29T19:08:57.448Z,12.40
2023-01-29T19:11:25.222Z,12.90
2023-01-29T19:13:53.016Z,15.97
2023-01-29T19:16:20.786Z,13.03
2023-01-29T19:18:49.923Z,17.50
2023-01-29T19:21:18.136Z,13.67
2023-01-29T19:23:45.940Z,14.57
2023-01-29T19:26:13.997Z,13.57
2023-01-29T19:28:41.837Z,15.63
2023-01-29T19:31:10.908Z,15.23
2023-01-29T19:33:39.009Z,15.93
2023-01-29T19:36:08.965Z,14.50
2023-01-29T19:38:38.530Z,18.03
2023-01-29T19:41:06.831Z,15.60
2023-01-29T19:43:34.769Z,14.13
2023-01-29T19:46:03.161Z,17.70
2023-01-29T19:48:31.270Z,12.70
2023-01-29T19:51:01.377Z,14.03
2023-01-29T19:53:31.291Z,13.13
2023-01-29T19:56:00.375Z,17.13
2023-01-29T19:58:28.642Z,13.53
2023-01-29T20:00:57.450Z,14.57
2023-01-29T20:03:25.675Z,16.20
2023-01-29T20:05:53.535Z,16.80
2023-01-29T20:08:21.313Z,11.03
2023-01-29T20:10:50.590Z,16.37
2023-01-29T20:13:18.316Z,18.27
2023-01-29T20:15:46.975Z,14.50
2023-01-29T20:18:15.318Z,20.33
2023-01-29T20:20:43.774Z,16.63
2023-01-29T20:23:12.104Z,16.67
2023-01-29T20:25:40.260Z,17.43
2023-01-29T20:28:12.206Z,16.47
2023-01-29T20:30:41.069Z,16.97
2023-01-29T20:33:09.342Z,15.00
2023-01-29T20:35:38.699Z,14.97
2023-01-29T20:38:07.499Z,13.33
2023-01-29T20:40:35.224Z,15.60
2023-01-29T20:43:03.023Z,11.07
2023-01-29T20:45:33.039Z,11.23
2023-01-29T20:48:00.802Z,13.47
2023-01-29T20:50:28.645Z,11.60
2023-01-29T20:52:57.435Z,11.30
2023-01-29T20:55:25.242Z,13.93
2023-01-29T20:58:06.164Z,10.30
2023-01-29T21:00:35.775Z,15.77
2023-01-29T21:03:03.610Z,11.60
2023-01-29T21:05:31.566Z,12.43
2023-01-29T21:07:59.285Z,10.77
2023-01-29T21:10:27.050Z,9.97
2023-01-29T21:12:55.213Z,9.80
2023-01-29T21:15:24.662Z,9.80
2023-01-29T21:17:53.972Z,12.57
2023-01-29T21:20:21.742Z,10.10
2023-01-29T21:22:49.523Z,9.67
2023-01-29T21:25:20.124Z,9.53
2023-01-29T21:27:47.831Z,10.47
2023-01-29T21:30:16.012Z,7.87
2023-01-29T21:32:43.982Z,9.70
2023-01-29T21:35:13.148Z,6.00
2023-01-29T21:37:41.031Z,8.60
2023-01-29T21:40:11.065Z,7.57
2023-01-29T21:42:56.499Z,4.93
2023-01-29T21:45:24.299Z,6.53
2023-01-29T21:47:52.045Z,8.80
2023-01-29T21:50:21.350Z,5.53
2023-01-29T21:52:49.250Z,8.97
2023-01-29T21:55:17.076Z,7.70
2023-01-29T21:57:46.741Z,7.70
2023-01-29T22:00:15.375Z,6.93
2023-01-29T22:02:45.071Z,7.77
2023-01-29T22:05:19.373Z,10.90
2023-01-29T22:07:49.741Z,8.20
2023-01-29T22:10:19.267Z,12.40
2023-01-29T22:12:47.715Z,5.57
2023-01-29T22:15:15.842Z,11.10
2023-01-29T22:17:44.659Z,10.20
2023-01-29T22:20:16.204Z,10.73
2023-01-29T22:22:44.260Z,10.30
2023-01-29T22:25:13.376Z,7.27
2023-01-29T22:27:41.411Z,6.83
2023-01-29T22:30:10.553Z,4.67
2023-01-29T22:32:38.310Z,5.20
2023-01-29T22:35:07.058Z,9.77
2023-01-29T22:37:34.758Z,10.40
2023-01-29T22:40:02.539Z,9.23
2023-01-29T22:42:31.587Z,9.93
2023-01-29T22:44:59.354Z,10.10
2023-01-29T22:47:27.082Z,6.07
2023-01-29T22:49:54.782Z,6.57
2023-01-29T22:52:23.172Z,8.13
2023-01-29T22:54:51.519Z,10.60
2023-01-29T22:57:19.798Z,4.90
2023-01-29T22:59:48.941Z,7.17
2023-01-29T23:02:16.751Z,4.93
2023-01-29T23:04:44.441Z,5.53
2023-01-29T23:07:12.203Z,4.40
2023-01-29T23:09:39.946Z,4.53
2023-01-29T23:12:08.140Z,3.33
2023-01-29T23:14:35.939Z,5.63
2023-01-29T23:17:05.149Z,5.77
2023-01-29T23:19:32.814Z,6.03
2023-01-29T23:22:00.718Z,3.97
2023-01-29T23:24:28.510Z,4.40
2023-01-29T23:27:13.528Z,6.27
2023-01-29T23:29:41.299Z,5.53
2023-01-29T23:32:10.801Z,4.30
2023-01-29T23:34:38.560Z,4.77
2023-01-29T23:37:06.440Z,3.40
2023-01-29T23:39:34.260Z,3.97
2023-01-29T23:42:02.172Z,2.70
2023-01-29T23:44:30.240Z,7.53
2023-01-29T23:46:58.306Z,2.77
2023-01-29T23:49:27.537Z,9.77
2023-01-29T23:51:55.226Z,6.47
2023-01-29T23:54:23.014Z,6.87
2023-01-29T23:56:50.779Z,6.10
2023-01-29T23:59:18.553Z,7.13
